sensor_id;sensor_type;location;lat;lon;timestamp;pressure;altitude;pressure_sealevel;temperature;humidity
47054;BME280;32811;52.382;5.270;2023-05-12T00:01:00;101840.03;;;10.73;100.00
47054;BME280;32811;52.382;5.270;2023-05-12T00:03:27;101842.56;;;10.70;100.00
47054;BME280;32811;52.382;5.270;2023-05-12T00:05:54;101872.88;;;10.80;100.00
47054;BME280;32811;52.382;5.270;2023-05-12T00:08:21;101818.16;;;10.54;100.00
47054;BME280;32811;52.382;5.270;2023-05-12T00:10:49;101821.47;;;10.49;100.00
47054;BME280;32811;52.382;5.270;2023-05-12T00:13:24;101865.13;;;10.80;100.00
47054;BME280;32811;52.382;5.270;2023-05-12T00:15:54;101821.63;;;10.56;100.00
47054;BME280;32811;52.382;5.270;2023-05-12T00:18:22;101815.47;;;10.50;100.00
47054;BME280;32811;52.382;5.270;2023-05-12T00:20:49;101844.16;;;10.64;100.00
47054;BME280;32811;52.382;5.270;2023-05-12T00:23:22;101833.78;;;10.62;100.00
47054;BME280;32811;52.382;5.270;2023-05-12T00:25:54;101844.28;;;10.71;100.00
47054;BME280;32811;52.382;5.270;2023-05-12T00:28:28;101815.69;;;10.61;100.00
47054;BME280;32811;52.382;5.270;2023-05-12T00:30:56;101854.78;;;10.80;100.00
47054;BME280;32811;52.382;5.270;2023-05-12T00:33:29;101839.94;;;10.67;100.00
47054;BME280;32811;52.382;5.270;2023-05-12T00:35:58;101856.44;;;10.75;100.00
47054;BME280;32811;52.382;5.270;2023-05-12T00:38:32;101821.69;;;10.59;100.00
47054;BME280;32811;52.382;5.270;2023-05-12T00:41:06;101823.44;;;10.61;100.00
47054;BME280;32811;52.382;5.270;2023-05-12T00:43:33;101811.22;;;10.53;100.00
47054;BME280;32811;52.382;5.270;2023-05-12T00:46:04;101838.25;;;10.71;100.00
47054;BME280;32811;52.382;5.270;2023-05-12T00:48:31;101850.50;;;10.79;100.00
47054;BME280;32811;52.382;5.270;2023-05-12T00:51:02;101827.88;;;10.69;100.00
47054;BME280;32811;52.382;5.270;2023-05-12T00:53:30;101830.47;;;10.68;100.00
47054;BME280;32811;52.382;5.270;2023-05-12T00:56:25;101842.78;;;10.81;100.00
47054;BME280;32811;52.382;5.270;2023-05-12T00:58:55;101816.69;;;10.69;100.00
47054;BME280;32811;52.382;5.270;2023-05-12T01:01:23;101846.19;;;10.80;100.00
47054;BME280;32811;52.382;5.270;2023-05-12T01:03:50;101795.69;;;10.50;100.00
47054;BME280;32811;52.382;5.270;2023-05-12T01:08:59;101821.06;;;10.71;100.00
47054;BME280;32811;52.382;5.270;2023-05-12T01:11:26;101826.31;;;10.76;100.00
47054;BME280;32811;52.382;5.270;2023-05-12T01:13:53;101820.16;;;10.69;100.00
47054;BME280;32811;52.382;5.270;2023-05-12T01:16:22;101827.25;;;10.79;100.00
47054;BME280;32811;52.382;5.270;2023-05-12T01:18:50;101815.16;;;10.77;100.00
47054;BME280;32811;52.382;5.270;2023-05-12T01:21:19;101813.38;;;10.76;100.00
47054;BME280;32811;52.382;5.270;2023-05-12T01:23:50;101812.47;;;10.72;100.00
47054;BME280;32811;52.382;5.270;2023-05-12T01:26:20;101815.09;;;10.75;100.00
47054;BME280;32811;52.382;5.270;2023-05-12T01:28:48;101814.28;;;10.76;100.00
47054;BME280;32811;52.382;5.270;2023-05-12T01:31:15;101818.72;;;10.84;100.00
47054;BME280;32811;52.382;5.270;2023-05-12T01:33:45;101780.34;;;10.56;100.00
47054;BME280;32811;52.382;5.270;2023-05-12T01:36:12;101809.16;;;10.79;100.00
47054;BME280;32811;52.382;5.270;2023-05-12T01:38:39;101788.16;;;10.61;100.00
47054;BME280;32811;52.382;5.270;2023-05-12T01:41:05;101797.81;;;10.71;100.00
47054;BME280;32811;52.382;5.270;2023-05-12T01:43:32;101811.78;;;10.83;100.00
47054;BME280;32811;52.382;5.270;2023-05-12T01:45:58;101802.19;;;10.75;100.00
47054;BME280;32811;52.382;5.270;2023-05-12T01:48:25;101801.28;;;10.72;100.00
47054;BME280;32811;52.382;5.270;2023-05-12T01:50:52;101819.47;;;10.78;100.00
47054;BME280;32811;52.382;5.270;2023-05-12T01:53:18;101811.66;;;10.75;100.00
47054;BME280;32811;52.382;5.270;2023-05-12T01:55:45;101821.13;;;10.74;100.00
47054;BME280;32811;52.382;5.270;2023-05-12T01:58:11;101817.69;;;10.75;100.00
47054;BME280;32811;52.382;5.270;2023-05-12T02:00:38;101828.09;;;10.78;100.00
47054;BME280;32811;52.382;5.270;2023-05-12T02:03:04;101820.34;;;10.78;100.00
47054;BME280;32811;52.382;5.270;2023-05-12T02:05:31;101822.06;;;10.79;100.00
47054;BME280;32811;52.382;5.270;2023-05-12T02:07:58;101829.88;;;10.81;100.00
47054;BME280;32811;52.382;5.270;2023-05-12T02:10:24;101816.91;;;10.79;100.00
47054;BME280;32811;52.382;5.270;2023-05-12T02:12:51;101815.09;;;10.74;100.00
47054;BME280;32811;52.382;5.270;2023-05-12T02:15:18;101828.09;;;10.80;100.00
47054;BME280;32811;52.382;5.270;2023-05-12T02:17:44;101829.78;;;10.78;100.00
47054;BME280;32811;52.382;5.270;2023-05-12T02:20:11;101818.47;;;10.70;100.00
47054;BME280;32811;52.382;5.270;2023-05-12T02:22:38;101825.31;;;10.68;100.00
47054;BME280;32811;52.382;5.270;2023-05-12T02:25:05;101822.00;;;10.75;100.00
47054;BME280;32811;52.382;5.270;2023-05-12T02:27:31;101815.03;;;10.71;100.00
47054;BME280;32811;52.382;5.270;2023-05-12T02:29:58;101815.94;;;10.73;100.00
47054;BME280;32811;52.382;5.270;2023-05-12T02:32:25;101813.16;;;10.64;100.00
47054;BME280;32811;52.382;5.270;2023-05-12T02:34:54;101828.84;;;10.73;100.00
47054;BME280;32811;52.382;5.270;2023-05-12T02:37:21;101814.13;;;10.69;100.00
47054;BME280;32811;52.382;5.270;2023-05-12T02:39:48;101813.34;;;10.73;100.00
47054;BME280;32811;52.382;5.270;2023-05-12T02:42:14;101812.47;;;10.72;100.00
47054;BME280;32811;52.382;5.270;2023-05-12T02:44:41;101813.38;;;10.76;100.00
47054;BME280;32811;52.382;5.270;2023-05-12T02:47:08;101808.19;;;10.73;100.00
47054;BME280;32811;52.382;5.270;2023-05-12T02:49:34;101776.06;;;10.58;100.00
47054;BME280;32811;52.382;5.270;2023-05-12T02:52:01;101827.47;;;10.90;100.00
47054;BME280;32811;52.382;5.270;2023-05-12T02:54:28;101830.78;;;10.85;100.00
47054;BME280;32811;52.382;5.270;2023-05-12T02:56:54;101808.34;;;10.82;100.00
47054;BME280;32811;52.382;5.270;2023-05-12T02:59:23;101820.53;;;10.88;100.00
47054;BME280;32811;52.382;5.270;2023-05-12T03:01:49;101816.19;;;10.87;100.00
47054;BME280;32811;52.382;5.270;2023-05-12T03:04:17;101812.69;;;10.85;100.00
47054;BME280;32811;52.382;5.270;2023-05-12T03:06:43;101813.50;;;10.82;100.00
47054;BME280;32811;52.382;5.270;2023-05-12T03:09:10;101809.13;;;10.76;100.00
47054;BME280;32811;52.382;5.270;2023-05-12T03:11:36;101798.66;;;10.70;100.00
47054;BME280;32811;52.382;5.270;2023-05-12T03:14:03;101804.72;;;10.72;100.00
47054;BME280;32811;52.382;5.270;2023-05-12T03:16:29;101802.06;;;10.68;100.00
47054;BME280;32811;52.382;5.270;2023-05-12T03:18:56;101801.16;;;10.66;100.00
47054;BME280;32811;52.382;5.270;2023-05-12T03:21:23;101809.03;;;10.72;100.00
47054;BME280;32811;52.382;5.270;2023-05-12T03:23:49;101795.13;;;10.67;100.00
47054;BME280;32811;52.382;5.270;2023-05-12T03:26:16;101802.88;;;10.67;100.00
47054;BME280;32811;52.382;5.270;2023-05-12T03:28:43;101803.88;;;10.72;100.00
47054;BME280;32811;52.382;5.270;2023-05-12T03:31:10;101799.47;;;10.68;100.00
47054;BME280;32811;52.382;5.270;2023-05-12T03:33:37;101803.78;;;10.69;100.00
47054;BME280;32811;52.382;5.270;2023-05-12T03:36:03;101809.91;;;10.72;100.00
47054;BME280;32811;52.382;5.270;2023-05-12T03:38:31;101803.75;;;10.66;100.00
47054;BME280;32811;52.382;5.270;2023-05-12T03:41:05;101798.63;;;10.67;100.00
47054;BME280;32811;52.382;5.270;2023-05-12T03:43:32;101802.06;;;10.68;100.00
47054;BME280;32811;52.382;5.270;2023-05-12T03:45:59;101798.50;;;10.61;100.00
47054;BME280;32811;52.382;5.270;2023-05-12T03:48:25;101801.22;;;10.69;100.00
47054;BME280;32811;52.382;5.270;2023-05-12T03:50:52;101804.56;;;10.65;100.00
47054;BME280;32811;52.382;5.270;2023-05-12T03:53:19;101791.56;;;10.60;100.00
47054;BME280;32811;52.382;5.270;2023-05-12T03:55:45;101796.78;;;10.62;100.00
47054;BME280;32811;52.382;5.270;2023-05-12T03:58:12;101794.16;;;10.60;100.00
47054;BME280;32811;52.382;5.270;2023-05-12T04:00:39;101794.28;;;10.66;100.00
47054;BME280;32811;52.382;5.270;2023-05-12T04:03:05;101803.78;;;10.69;100.00
47054;BME280;32811;52.382;5.270;2023-05-12T04:05:32;101800.38;;;10.70;100.00
47054;BME280;32811;52.382;5.270;2023-05-12T04:07:59;101790.75;;;10.63;100.00
47054;BME280;32811;52.382;5.270;2023-05-12T04:10:25;101792.66;;;10.71;100.00
47054;BME280;32811;52.382;5.270;2023-05-12T04:12:52;101797.84;;;10.73;100.00
47054;BME280;32811;52.382;5.270;2023-05-12T04:15:20;101796.94;;;10.71;100.00
47054;BME280;32811;52.382;5.270;2023-05-12T04:17:46;101791.75;;;10.69;100.00
47054;BME280;32811;52.382;5.270;2023-05-12T04:20:13;101800.47;;;10.76;100.00
47054;BME280;32811;52.382;5.270;2023-05-12T04:22:40;101790.00;;;10.68;100.00
47054;BME280;32811;52.382;5.270;2023-05-12T04:25:07;101804.81;;;10.77;100.00
47054;BME280;32811;52.382;5.270;2023-05-12T04:27:33;101801.34;;;10.75;100.00
47054;BME280;32811;52.382;5.270;2023-05-12T04:30:00;101805.72;;;10.79;100.00
47054;BME280;32811;52.382;5.270;2023-05-12T04:32:27;101807.44;;;10.80;100.00
47054;BME280;32811;52.382;5.270;2023-05-12T04:34:53;101805.84;;;10.85;100.00
47054;BME280;32811;52.382;5.270;2023-05-12T04:37:21;101809.25;;;10.84;100.00
47054;BME280;32811;52.382;5.270;2023-05-12T04:39:48;101793.63;;;10.78;100.00
47054;BME280;32811;52.382;5.270;2023-05-12T04:42:15;101803.28;;;10.87;100.00
47054;BME280;32811;52.382;5.270;2023-05-12T04:44:41;101800.75;;;10.90;100.00
47054;BME280;32811;52.382;5.270;2023-05-12T04:47:11;101794.66;;;10.86;100.00
47054;BME280;32811;52.382;5.270;2023-05-12T04:49:38;101802.50;;;10.91;100.00
47054;BME280;32811;52.382;5.270;2023-05-12T04:52:04;101810.31;;;10.95;100.00
47054;BME280;32811;52.382;5.270;2023-05-12T04:54:31;101812.88;;;10.94;100.00
47054;BME280;32811;52.382;5.270;2023-05-12T04:56:58;101825.94;;;11.01;100.00
47054;BME280;32811;52.382;5.270;2023-05-12T04:59:24;101827.53;;;10.95;100.00
47054;BME280;32811;52.382;5.270;2023-05-12T05:01:51;101820.53;;;10.89;100.00
47054;BME280;32811;52.382;5.270;2023-05-12T05:04:18;101831.06;;;11.00;100.00
47054;BME280;32811;52.382;5.270;2023-05-12T05:06:44;101837.91;;;10.98;100.00
47054;BME280;32811;52.382;5.270;2023-05-12T05:09:11;101844.03;;;11.01;100.00
47054;BME280;32811;52.382;5.270;2023-05-12T05:11:37;101843.16;;;11.02;100.00
47054;BME280;32811;52.382;5.270;2023-05-12T05:14:04;101846.47;;;10.95;100.00
47054;BME280;32811;52.382;5.270;2023-05-12T05:16:31;101849.97;;;10.97;100.00
47054;BME280;32811;52.382;5.270;2023-05-12T05:18:57;101857.84;;;11.04;100.00
47054;BME280;32811;52.382;5.270;2023-05-12T05:21:24;101852.69;;;11.04;100.00
47054;BME280;32811;52.382;5.270;2023-05-12T05:23:50;101865.72;;;11.10;100.00
47054;BME280;32811;52.382;5.270;2023-05-12T05:26:18;101862.22;;;11.08;100.00
47054;BME280;32811;52.382;5.270;2023-05-12T05:28:46;101861.41;;;11.10;100.00
47054;BME280;32811;52.382;5.270;2023-05-12T05:31:16;101860.47;;;11.07;100.00
47054;BME280;32811;52.382;5.270;2023-05-12T05:33:43;101853.59;;;11.07;100.00
47054;BME280;32811;52.382;5.270;2023-05-12T05:36:10;101859.66;;;11.08;100.00
47054;BME280;32811;52.382;5.270;2023-05-12T05:38:37;101864.84;;;11.11;100.00
47054;BME280;32811;52.382;5.270;2023-05-12T05:41:04;101871.91;;;11.19;100.00
47054;BME280;32811;52.382;5.270;2023-05-12T05:43:31;101870.28;;;11.23;100.00
47054;BME280;32811;52.382;5.270;2023-05-12T05:45:57;101858.09;;;11.17;100.00
47054;BME280;32811;52.382;5.270;2023-05-12T05:48:24;101878.03;;;11.23;100.00
47054;BME280;32811;52.382;5.270;2023-05-12T05:50:51;101885.03;;;11.30;100.00
47054;BME280;32811;52.382;5.270;2023-05-12T05:53:19;101885.91;;;11.31;100.00
47054;BME280;32811;52.382;5.270;2023-05-12T05:55:46;101891.09;;;11.32;100.00
47054;BME280;32811;52.382;5.270;2023-05-12T05:58:16;101886.84;;;11.34;100.00
47054;BME280;32811;52.382;5.270;2023-05-12T06:00:43;101898.09;;;11.36;100.00
47054;BME280;32811;52.382;5.270;2023-05-12T06:03:10;101893.75;;;11.35;100.00
47054;BME280;32811;52.382;5.270;2023-05-12T06:05:37;101898.94;;;11.38;100.00
47054;BME280;32811;52.382;5.270;2023-05-12T06:08:03;101902.44;;;11.39;100.00
47054;BME280;32811;52.382;5.270;2023-05-12T06:10:30;101888.69;;;11.41;100.00
47054;BME280;32811;52.382;5.270;2023-05-12T06:12:57;101909.56;;;11.54;100.00
47054;BME280;32811;52.382;5.270;2023-05-12T06:15:23;101907.25;;;11.68;100.00
47054;BME280;32811;52.382;5.270;2023-05-12T06:17:50;101903.75;;;11.67;100.00
47054;BME280;32811;52.382;5.270;2023-05-12T06:20:17;101912.50;;;11.72;100.00
47054;BME280;32811;52.382;5.270;2023-05-12T06:22:43;101916.84;;;11.76;100.00
47054;BME280;32811;52.382;5.270;2023-05-12T06:25:10;101908.34;;;11.82;100.00
47054;BME280;32811;52.382;5.270;2023-05-12T06:27:37;101886.63;;;11.72;100.00
47054;BME280;32811;52.382;5.270;2023-05-12T06:30:04;101912.88;;;11.94;100.00
47054;BME280;32811;52.382;5.270;2023-05-12T06:32:31;101900.63;;;11.85;100.00
47054;BME280;32811;52.382;5.270;2023-05-12T06:34:57;101910.28;;;11.94;100.00
47054;BME280;32811;52.382;5.270;2023-05-12T06:37:24;101901.69;;;11.96;100.00
47054;BME280;32811;52.382;5.270;2023-05-12T06:39:50;101907.78;;;12.00;100.00
47054;BME280;32811;52.382;5.270;2023-05-12T06:42:17;101910.41;;;12.01;100.00
47054;BME280;32811;52.382;5.270;2023-05-12T06:44:44;101911.13;;;11.94;100.00
47054;BME280;32811;52.382;5.270;2023-05-12T06:47:11;101917.25;;;11.98;100.00
47054;BME280;32811;52.382;5.270;2023-05-12T06:49:38;101913.06;;;12.08;100.00
47054;BME280;32811;52.382;5.270;2023-05-12T06:52:05;101916.69;;;12.19;100.00
47054;BME280;32811;52.382;5.270;2023-05-12T06:54:32;101912.44;;;12.22;100.00
47054;BME280;32811;52.382;5.270;2023-05-12T06:56:59;101915.97;;;12.26;100.00
47054;BME280;32811;52.382;5.270;2023-05-12T06:59:25;101913.34;;;12.24;100.00
47054;BME280;32811;52.382;5.270;2023-05-12T07:01:52;101910.75;;;12.24;100.00
47054;BME280;32811;52.382;5.270;2023-05-12T07:04:19;101915.16;;;12.30;100.00
47054;BME280;32811;52.382;5.270;2023-05-12T07:06:46;101919.69;;;12.46;100.00
47054;BME280;32811;52.382;5.270;2023-05-12T07:09:13;101908.41;;;12.43;100.00
47054;BME280;32811;52.382;5.270;2023-05-12T07:11:39;101919.91;;;12.62;100.00
47054;BME280;32811;52.382;5.270;2023-05-12T07:14:06;101926.81;;;12.63;100.00
47054;BME280;32811;52.382;5.270;2023-05-12T07:16:32;101927.06;;;12.80;100.00
47054;BME280;32811;52.382;5.270;2023-05-12T07:18:59;101917.50;;;12.76;100.00
47054;BME280;32811;52.382;5.270;2023-05-12T07:21:26;101916.78;;;12.86;100.00
47054;BME280;32811;52.382;5.270;2023-05-12T07:23:53;101918.59;;;12.96;100.00
47054;BME280;32811;52.382;5.270;2023-05-12T07:26:20;101915.09;;;12.91;100.00
47054;BME280;32811;52.382;5.270;2023-05-12T07:28:49;101915.19;;;13.00;100.00
47054;BME280;32811;52.382;5.270;2023-05-12T07:31:15;101915.44;;;13.22;100.00
47054;BME280;32811;52.382;5.270;2023-05-12T07:33:42;101912.97;;;13.29;100.00
47054;BME280;32811;52.382;5.270;2023-05-12T07:36:09;101927.81;;;13.44;100.00
47054;BME280;32811;52.382;5.270;2023-05-12T07:38:35;101921.00;;;13.56;100.00
47054;BME280;32811;52.382;5.270;2023-05-12T07:41:02;101920.25;;;13.67;100.00
47054;BME280;32811;52.382;5.270;2023-05-12T07:43:29;101922.09;;;13.81;100.00
47054;BME280;32811;52.382;5.270;2023-05-12T07:45:55;101900.31;;;13.63;100.00
47054;BME280;32811;52.382;5.270;2023-05-12T07:48:24;101920.31;;;13.77;100.00
47054;BME280;32811;52.382;5.270;2023-05-12T07:50:51;101917.66;;;13.67;100.00
47054;BME280;32811;52.382;5.270;2023-05-12T07:53:17;101928.00;;;13.64;100.00
47054;BME280;32811;52.382;5.270;2023-05-12T07:55:44;101928.06;;;13.69;100.00
47054;BME280;32811;52.382;5.270;2023-05-12T07:58:12;101922.06;;;13.78;100.00
47054;BME280;32811;52.382;5.270;2023-05-12T08:00:38;101915.25;;;13.89;100.00
47054;BME280;32811;52.382;5.270;2023-05-12T08:03:05;101916.22;;;14.06;100.00
47054;BME280;32811;52.382;5.270;2023-05-12T08:05:33;101913.69;;;14.17;100.00
47054;BME280;32811;52.382;5.270;2023-05-12T08:07:59;101912.75;;;14.03;100.00
47054;BME280;32811;52.382;5.270;2023-05-12T08:10:26;101915.41;;;14.15;100.00
47054;BME280;32811;52.382;5.270;2023-05-12T08:12:55;101918.13;;;14.32;100.00
47054;BME280;32811;52.382;5.270;2023-05-12T08:15:22;101928.69;;;14.55;100.00
47054;BME280;32811;52.382;5.270;2023-05-12T08:17:48;101913.13;;;14.58;100.00
47054;BME280;32811;52.382;5.270;2023-05-12T08:20:15;101924.44;;;14.68;100.00
47054;BME280;32811;52.382;5.270;2023-05-12T08:22:41;101918.38;;;14.70;100.00
47054;BME280;32811;52.382;5.270;2023-05-12T08:25:09;101929.72;;;14.89;100.00
47054;BME280;32811;52.382;5.270;2023-05-12T08:27:38;101935.81;;;14.91;100.00
47054;BME280;32811;52.382;5.270;2023-05-12T08:30:05;101924.50;;;14.86;100.00
47054;BME280;32811;52.382;5.270;2023-05-12T08:32:31;101919.38;;;15.06;100.00
47054;BME280;32811;52.382;5.270;2023-05-12T08:34:59;101927.22;;;15.17;100.00
47054;BME280;32811;52.382;5.270;2023-05-12T08:37:26;101921.13;;;15.18;100.00
47054;BME280;32811;52.382;5.270;2023-05-12T08:39:53;101936.81;;;15.41;100.00
47054;BME280;32811;52.382;5.270;2023-05-12T08:42:34;101928.13;;;15.36;100.00
47054;BME280;32811;52.382;5.270;2023-05-12T08:45:02;101934.16;;;15.29;100.00
47054;BME280;32811;52.382;5.270;2023-05-12T08:47:31;101931.59;;;15.40;100.00
47054;BME280;32811;52.382;5.270;2023-05-12T08:50:00;101939.41;;;15.35;100.00
47054;BME280;32811;52.382;5.270;2023-05-12T08:52:36;101935.94;;;15.56;100.00
47054;BME280;32811;52.382;5.270;2023-05-12T08:55:04;101937.69;;;15.46;100.00
47054;BME280;32811;52.382;5.270;2023-05-12T08:57:31;101942.03;;;15.53;100.00
47054;BME280;32811;52.382;5.270;2023-05-12T09:00:01;101953.28;;;15.43;100.00
47054;BME280;32811;52.382;5.270;2023-05-12T09:02:27;101939.38;;;15.29;100.00
47054;BME280;32811;52.382;5.270;2023-05-12T09:05:13;101952.38;;;15.30;100.00
47054;BME280;32811;52.382;5.270;2023-05-12T09:07:42;101955.88;;;15.34;100.00
47054;BME280;32811;52.382;5.270;2023-05-12T09:10:17;101955.91;;;15.51;100.00
47054;BME280;32811;52.382;5.270;2023-05-12T09:13:19;101949.78;;;15.38;100.00
47054;BME280;32811;52.382;5.270;2023-05-12T09:15:49;101950.69;;;15.34;100.00
47054;BME280;32811;52.382;5.270;2023-05-12T09:18:19;101956.75;;;15.36;100.00
47054;BME280;32811;52.382;5.270;2023-05-12T09:20:45;101953.25;;;15.26;100.00
47054;BME280;32811;52.382;5.270;2023-05-12T09:23:17;101956.72;;;15.24;100.00
47054;BME280;32811;52.382;5.270;2023-05-12T09:25:45;101957.47;;;15.00;100.00
47054;BME280;32811;52.382;5.270;2023-05-12T09:28:15;101962.66;;;14.95;100.00
47054;BME280;32811;52.382;5.270;2023-05-12T09:30:41;101958.34;;;14.97;100.00
47054;BME280;32811;52.382;5.270;2023-05-12T09:33:12;101968.00;;;15.23;100.00
47054;BME280;32811;52.382;5.270;2023-05-12T09:35:40;101965.44;;;15.47;100.00
47054;BME280;32811;52.382;5.270;2023-05-12T09:38:08;101958.50;;;15.65;100.00
47054;BME280;32811;52.382;5.270;2023-05-12T09:40:35;101955.13;;;15.86;100.00
47054;BME280;32811;52.382;5.270;2023-05-12T09:43:04;101960.28;;;16.12;100.00
47054;BME280;32811;52.382;5.270;2023-05-12T09:45:37;101955.09;;;16.26;100.00
47054;BME280;32811;52.382;5.270;2023-05-12T09:48:08;101955.94;;;16.48;100.00
47054;BME280;32811;52.382;5.270;2023-05-12T09:50:42;101952.03;;;17.49;100.00
47054;BME280;32811;52.382;5.270;2023-05-12T09:53:13;101956.75;;;18.15;100.00
47054;BME280;32811;52.382;5.270;2023-05-12T09:55:44;101943.91;;;17.92;100.00
47054;BME280;32811;52.382;5.270;2023-05-12T09:58:16;101950.31;;;17.45;100.00
47054;BME280;32811;52.382;5.270;2023-05-12T10:00:43;101954.78;;;17.29;100.00
47054;BME280;32811;52.382;5.270;2023-05-12T10:03:32;101957.44;;;17.19;100.00
47054;BME280;32811;52.382;5.270;2023-05-12T10:06:02;101963.41;;;17.41;100.00
47054;BME280;32811;52.382;5.270;2023-05-12T10:09:05;101963.41;;;17.38;100.00
47054;BME280;32811;52.382;5.270;2023-05-12T10:11:34;101971.28;;;17.31;100.00
47054;BME280;32811;52.382;5.270;2023-05-12T10:14:02;101957.31;;;17.42;100.00
47054;BME280;32811;52.382;5.270;2023-05-12T10:16:30;101960.75;;;17.48;100.00
47054;BME280;32811;52.382;5.270;2023-05-12T10:18:58;101963.25;;;17.64;100.00
47054;BME280;32811;52.382;5.270;2023-05-12T10:21:25;101967.69;;;17.55;100.00
47054;BME280;32811;52.382;5.270;2023-05-12T10:23:53;101949.47;;;17.41;100.00
47054;BME280;32811;52.382;5.270;2023-05-12T10:26:20;101971.00;;;17.75;100.00
47054;BME280;32811;52.382;5.270;2023-05-12T10:28:47;101969.25;;;17.74;100.00
47054;BME280;32811;52.382;5.270;2023-05-12T10:31:15;101969.25;;;17.77;100.00
47054;BME280;32811;52.382;5.270;2023-05-12T10:33:42;101969.41;;;17.57;100.00
47054;BME280;32811;52.382;5.270;2023-05-12T10:36:17;101963.31;;;17.52;100.00
47054;BME280;32811;52.382;5.270;2023-05-12T10:38:47;101965.84;;;17.66;100.00
47054;BME280;32811;52.382;5.270;2023-05-12T10:41:27;101966.78;;;17.57;100.00
47054;BME280;32811;52.382;5.270;2023-05-12T10:43:54;101964.13;;;17.60;100.00
47054;BME280;32811;52.382;5.270;2023-05-12T10:46:21;101966.72;;;17.67;100.00
47054;BME280;32811;52.382;5.270;2023-05-12T10:51:49;101956.56;;;18.36;100.00
47054;BME280;32811;52.382;5.270;2023-05-12T10:54:20;101956.41;;;18.52;100.00
47054;BME280;32811;52.382;5.270;2023-05-12T10:56:50;101950.63;;;18.20;100.00
47054;BME280;32811;52.382;5.270;2023-05-12T11:02:03;101954.41;;;18.80;100.00
47054;BME280;32811;52.382;5.270;2023-05-12T11:07:03;101957.25;;;18.54;100.00
47054;BME280;32811;52.382;5.270;2023-05-12T11:09:34;101960.78;;;18.50;100.00
47054;BME280;32811;52.382;5.270;2023-05-12T11:12:05;101955.25;;;18.80;100.00
47054;BME280;32811;52.382;5.270;2023-05-12T11:14:34;101957.88;;;18.76;100.00
47054;BME280;32811;52.382;5.270;2023-05-12T11:17:01;101957.16;;;18.64;100.00
47054;BME280;32811;52.382;5.270;2023-05-12T11:19:28;101965.16;;;18.49;100.00
47054;BME280;32811;52.382;5.270;2023-05-12T11:21:55;101956.31;;;18.62;100.00
47054;BME280;32811;52.382;5.270;2023-05-12T11:24:22;101963.41;;;18.51;100.00
47054;BME280;32811;52.382;5.270;2023-05-12T11:26:49;101972.00;;;18.59;100.00
47054;BME280;32811;52.382;5.270;2023-05-12T11:29:19;101969.53;;;18.49;100.00
47054;BME280;32811;52.382;5.270;2023-05-12T11:31:47;101966.13;;;18.40;100.00
47054;BME280;32811;52.382;5.270;2023-05-12T11:34:15;101970.94;;;18.80;100.00
47054;BME280;32811;52.382;5.270;2023-05-12T11:36:42;101973.34;;;18.97;100.00
47054;BME280;32811;52.382;5.270;2023-05-12T11:39:15;101967.72;;;19.26;100.00
47054;BME280;32811;52.382;5.270;2023-05-12T11:41:42;101968.63;;;19.27;100.00
47054;BME280;32811;52.382;5.270;2023-05-12T11:44:17;101969.47;;;19.26;100.00
47054;BME280;32811;52.382;5.270;2023-05-12T11:49:28;101969.69;;;19.11;100.00
47054;BME280;32811;52.382;5.270;2023-05-12T11:51:57;101981.13;;;19.05;100.00
47054;BME280;32811;52.382;5.270;2023-05-12T11:54:27;101970.84;;;18.86;100.00
47054;BME280;32811;52.382;5.270;2023-05-12T11:56:55;101968.00;;;19.06;100.00
47054;BME280;32811;52.382;5.270;2023-05-12T11:59:33;101974.13;;;19.04;100.00
47054;BME280;32811;52.382;5.270;2023-05-12T12:02:01;101975.63;;;19.22;100.00
47054;BME280;32811;52.382;5.270;2023-05-12T12:06:59;101974.44;;;19.47;100.00
47054;BME280;32811;52.382;5.270;2023-05-12T12:09:44;101974.63;;;19.94;100.00
47054;BME280;32811;52.382;5.270;2023-05-12T12:12:11;101969.22;;;20.03;100.00
47054;BME280;32811;52.382;5.270;2023-05-12T12:14:38;101975.81;;;20.24;100.00
47054;BME280;32811;52.382;5.270;2023-05-12T12:17:06;101967.19;;;20.21;100.00
47054;BME280;32811;52.382;5.270;2023-05-12T12:19:33;101979.53;;;19.55;100.00
47054;BME280;32811;52.382;5.270;2023-05-12T12:21:59;101975.63;;;19.23;100.00
47054;BME280;32811;52.382;5.270;2023-05-12T12:24:26;101979.16;;;19.21;100.00
47054;BME280;32811;52.382;5.270;2023-05-12T12:26:52;101970.06;;;19.46;100.00
47054;BME280;32811;52.382;5.270;2023-05-12T12:29:19;101966.63;;;19.43;100.00
47054;BME280;32811;52.382;5.270;2023-05-12T12:31:46;101977.56;;;19.73;100.00
47054;BME280;32811;52.382;5.270;2023-05-12T12:34:12;101981.75;;;19.84;100.00
47054;BME280;32811;52.382;5.270;2023-05-12T12:36:39;101974.72;;;19.88;100.00
47054;BME280;32811;52.382;5.270;2023-05-12T12:39:06;101982.72;;;19.79;100.00
47054;BME280;32811;52.382;5.270;2023-05-12T12:41:33;101984.75;;;19.58;100.00
47054;BME280;32811;52.382;5.270;2023-05-12T12:43:59;101984.69;;;19.61;100.00
47054;BME280;32811;52.382;5.270;2023-05-12T12:46:26;101983.78;;;19.62;100.00
47054;BME280;32811;52.382;5.270;2023-05-12T12:48:53;101978.59;;;19.59;100.00
47054;BME280;32811;52.382;5.270;2023-05-12T12:51:19;101977.75;;;19.59;100.00
47054;BME280;32811;52.382;5.270;2023-05-12T12:53:46;101983.66;;;19.73;100.00
47054;BME280;32811;52.382;5.270;2023-05-12T12:56:12;101985.19;;;19.88;100.00
47054;BME280;32811;52.382;5.270;2023-05-12T12:58:39;101989.88;;;20.22;100.00
47054;BME280;32811;52.382;5.270;2023-05-12T13:01:06;101976.56;;;20.34;100.00